Time;durP1;ratioP1;P1;durP2;ratioP2;P2;SDS_P1;SDS_P2;PMS_P1;PMS_P2;Temp;Humidity;BMP_temperature;BMP_pressure;BME280_temperature;BME280_humidity;BME280_pressure;Samples;Min_cycle;Max_cycle;Signal;HPM_P1;HPM_P2
2023/05/01 00:00:22;;;;;;;4.03;2.58;;;12.90;99.90;;;;;;4177193;28;20029;-68
2023/05/01 00:02:22;;;;;;;3.63;2.35;;;12.80;99.90;;;;;;4178436;28;20094;-68
2023/05/01 00:04:23;;;;;;;4.28;1.90;;;12.90;99.90;;;;;;4177667;28;20496;-68
2023/05/01 00:06:24;;;;;;;2.80;2.00;;;12.90;99.90;;;;;;4176636;28;20111;-67
2023/05/01 00:08:24;;;;;;;5.47;2.10;;;12.90;99.90;;;;;;4177153;28;20484;-67
2023/05/01 00:10:25;;;;;;;4.32;2.35;;;13.00;99.90;;;;;;4175757;28;20230;-67
2023/05/01 00:12:26;;;;;;;4.13;2.22;;;13.00;99.90;;;;;;4178241;28;20127;-67
2023/05/01 00:14:27;;;;;;;3.70;1.98;;;13.00;99.90;;;;;;4175561;28;20029;-68
2023/05/01 00:16:28;;;;;;;3.05;2.03;;;13.00;99.90;;;;;;4175531;28;21394;-68
2023/05/01 00:18:29;;;;;;;3.38;2.10;;;13.10;99.90;;;;;;4177026;28;20388;-68
2023/05/01 00:20:30;;;;;;;3.75;2.22;;;13.10;99.90;;;;;;4174223;28;20036;-68
2023/05/01 00:22:31;;;;;;;4.35;2.40;;;13.10;99.90;;;;;;4176979;28;20044;-68
2023/05/01 00:24:31;;;;;;;4.40;2.40;;;13.20;99.90;;;;;;4173972;28;20037;-67
2023/05/01 00:26:32;;;;;;;2.85;2.20;;;13.20;99.90;;;;;;4175761;28;20039;-68
2023/05/01 00:28:32;;;;;;;9.27;2.88;;;13.30;99.90;;;;;;4177299;28;20064;-67
2023/05/01 00:30:33;;;;;;;2.72;1.88;;;13.30;99.90;;;;;;4176823;28;20037;-67
2023/05/01 00:32:34;;;;;;;4.40;2.08;;;13.30;99.90;;;;;;4178147;28;20048;-67
2023/05/01 00:34:34;;;;;;;5.25;2.00;;;13.30;99.90;;;;;;4176324;28;20025;-68
2023/05/01 00:36:35;;;;;;;4.65;2.28;;;13.40;99.90;;;;;;4175926;28;20029;-67
2023/05/01 00:38:36;;;;;;;5.72;2.17;;;13.40;99.90;;;;;;4175832;28;20033;-68
2023/05/01 00:40:44;;;;;;;4.25;2.22;;;13.30;99.90;;;;;;4177024;28;20400;-68
2023/05/01 00:42:44;;;;;;;3.75;2.20;;;13.40;99.90;;;;;;4175966;28;20064;-68
2023/05/01 00:44:45;;;;;;;3.13;2.00;;;13.40;99.90;;;;;;4169209;28;20392;-68
2023/05/01 00:46:45;;;;;;;4.25;2.40;;;13.40;99.90;;;;;;4173620;28;20110;-68
2023/05/01 00:48:46;;;;;;;4.45;2.35;;;13.30;99.90;;;;;;4175733;28;20025;-67
2023/05/01 00:50:48;;;;;;;5.18;2.88;;;13.30;99.90;;;;;;4174967;28;20033;-67
2023/05/01 00:52:49;;;;;;;5.93;2.42;;;13.30;99.90;;;;;;4176216;28;20025;-67
2023/05/01 00:54:51;;;;;;;4.00;2.28;;;13.30;99.90;;;;;;4177365;28;20032;-67
2023/05/01 00:56:51;;;;;;;5.32;2.55;;;13.30;99.90;;;;;;4176657;28;20043;-67
2023/05/01 00:58:53;;;;;;;4.07;2.40;;;13.30;99.90;;;;;;4176698;28;20494;-67
2023/05/01 01:00:54;;;;;;;4.60;2.28;;;13.30;99.90;;;;;;4176442;28;20025;-67
2023/05/01 01:02:55;;;;;;;2.80;2.17;;;13.30;99.90;;;;;;4176085;28;20037;-68
2023/05/01 01:04:55;;;;;;;4.35;2.30;;;13.30;99.90;;;;;;4176308;28;20053;-68
2023/05/01 01:07:08;;;;;;;4.90;2.53;;;13.30;99.90;;;;;;4176155;28;20041;-67
2023/05/01 01:09:46;;;;;;;4.28;2.85;;;13.20;99.90;;;;;;4177272;28;20036;-68
2023/05/01 01:12:15;;;;;;;3.33;2.15;;;13.20;99.90;;;;;;4172241;28;20108;-67
2023/05/01 01:14:37;;;;;;;4.15;2.55;;;13.10;99.90;;;;;;4175276;28;20025;-66
2023/05/01 01:16:47;;;;;;;5.55;2.90;;;12.90;99.90;;;;;;4175112;28;20096;-67
2023/05/01 01:18:50;;;;;;;3.63;2.50;;;12.80;99.90;;;;;;4172624;28;20426;-66
2023/05/01 01:21:05;;;;;;;5.70;3.00;;;12.80;99.90;;;;;;4175784;28;20110;-67
2023/05/01 01:23:43;;;;;;;4.40;3.10;;;12.80;99.90;;;;;;4174753;28;20035;-67
2023/05/01 01:26:06;;;;;;;3.95;2.72;;;12.50;99.90;;;;;;4174169;28;20025;-67
2023/05/01 01:28:56;;;;;;;4.70;2.60;;;12.40;99.90;;;;;;4176227;28;20091;-67
2023/05/01 01:31:27;;;;;;;4.57;2.70;;;12.50;99.90;;;;;;4174028;28;20078;-67
2023/05/01 01:33:47;;;;;;;3.17;2.08;;;12.50;99.90;;;;;;4175491;28;20036;-67
2023/05/01 01:35:56;;;;;;;3.92;2.42;;;12.50;99.90;;;;;;4173226;28;20064;-68
2023/05/01 01:38:05;;;;;;;4.05;2.40;;;12.50;99.90;;;;;;4172657;28;20041;-67
2023/05/01 01:40:42;;;;;;;4.80;2.65;;;12.60;99.90;;;;;;4174980;28;20044;-68
2023/05/01 01:42:57;;;;;;;4.82;2.70;;;12.60;99.90;;;;;;4174641;28;20037;-68
2023/05/01 01:45:03;;;;;;;5.47;2.50;;;12.50;99.90;;;;;;4175678;28;20715;-67
2023/05/01 01:47:08;;;;;;;5.30;2.47;;;12.60;99.90;;;;;;4174831;28;20396;-67
2023/05/01 01:49:15;;;;;;;5.65;2.90;;;12.50;99.90;;;;;;4174220;28;20851;-67
2023/05/01 01:51:19;;;;;;;5.28;3.28;;;12.40;99.90;;;;;;4171162;28;20075;-67
2023/05/01 01:53:21;;;;;;;5.63;3.28;;;12.30;99.90;;;;;;4170989;28;20509;-68
2023/05/01 01:55:28;;;;;;;3.83;2.85;;;12.20;99.90;;;;;;4174489;28;20116;-67
2023/05/01 01:57:30;;;;;;;8.82;3.70;;;12.10;99.90;;;;;;4174024;28;20025;-67
2023/05/01 01:59:33;;;;;;;4.95;3.05;;;11.90;99.90;;;;;;4172143;28;20044;-67
2023/05/01 02:01:33;;;;;;;;;;;11.80;99.90;;;;;;4173876;28;20083;-67
2023/05/01 02:03:35;;;;;;;5.80;2.70;;;11.80;99.90;;;;;;4174916;28;19912;-68
2023/05/01 02:05:39;;;;;;;6.68;3.10;;;11.70;99.90;;;;;;4172118;28;20497;-67
2023/05/01 02:07:42;;;;;;;6.45;3.17;;;11.70;99.90;;;;;;4175922;28;20049;-67
2023/05/01 02:09:43;;;;;;;;;;;11.80;99.90;;;;;;4176351;28;20050;-67
2023/05/01 02:11:45;;;;;;;3.60;2.42;;;11.80;99.90;;;;;;4174613;28;19931;-67
2023/05/01 02:13:48;;;;;;;5.37;3.20;;;11.80;99.90;;;;;;4172074;28;20033;-68
2023/05/01 02:15:49;;;;;;;3.90;2.88;;;11.90;99.90;;;;;;4173932;28;20260;-67
2023/05/01 02:17:52;;;;;;;4.07;2.83;;;11.90;99.90;;;;;;4174691;28;20136;-67
2023/05/01 02:19:54;;;;;;;5.18;3.00;;;11.90;99.90;;;;;;4174781;28;20039;-67
2023/05/01 02:21:56;;;;;;;4.50;2.67;;;11.90;99.90;;;;;;4172746;28;20151;-67
2023/05/01 02:24:00;;;;;;;5.45;3.40;;;11.90;99.90;;;;;;4174360;28;20036;-67
2023/05/01 02:26:03;;;;;;;5.50;3.33;;;11.90;99.90;;;;;;4174327;28;20041;-67
2023/05/01 02:28:07;;;;;;;;;;;11.90;99.90;;;;;;4174177;28;20041;-68
2023/05/01 02:30:08;;;;;;;5.82;3.40;;;11.90;99.90;;;;;;4174540;28;19924;-68
2023/05/01 02:32:09;;;;;;;6.47;3.72;;;11.80;99.90;;;;;;4172400;28;20384;-67
2023/05/01 02:34:10;;;;;;;6.75;3.67;;;11.70;99.90;;;;;;4174125;28;20040;-67
2023/05/01 02:36:12;;;;;;;6.05;3.17;;;11.80;99.90;;;;;;4171153;28;20124;-68
2023/05/01 02:38:13;;;;;;;6.53;3.35;;;11.70;99.90;;;;;;4177573;28;20364;-67
2023/05/01 02:40:14;;;;;;;4.33;3.00;;;11.70;99.90;;;;;;4178272;28;20079;-67
2023/05/01 02:42:19;;;;;;;5.28;3.45;;;11.70;99.90;;;;;;4177777;28;20022;-67
2023/05/01 02:44:19;;;;;;;5.53;3.35;;;11.70;99.90;;;;;;4178686;28;20032;-67
2023/05/01 02:46:22;;;;;;;5.38;3.30;;;11.70;99.90;;;;;;4176511;28;20040;-67
2023/05/01 02:48:26;;;;;;;6.85;3.45;;;11.70;99.90;;;;;;4177974;28;20495;-67
2023/05/01 02:50:28;;;;;;;5.35;3.33;;;11.60;99.90;;;;;;4178167;28;20029;-67
2023/05/01 02:52:29;;;;;;;5.60;3.40;;;11.60;99.90;;;;;;4178046;28;20061;-68
2023/05/01 02:54:30;;;;;;;6.38;3.50;;;11.60;99.90;;;;;;4179077;28;20507;-68
2023/05/01 02:56:31;;;;;;;4.93;3.13;;;11.70;99.90;;;;;;4177990;28;20067;-67
2023/05/01 02:58:32;;;;;;;4.78;3.15;;;11.70;99.90;;;;;;4178573;28;20033;-68
2023/05/01 03:00:34;;;;;;;6.38;3.35;;;11.80;99.90;;;;;;4175204;28;20091;-67
2023/05/01 03:02:34;;;;;;;5.63;3.55;;;11.80;99.90;;;;;;4176989;28;20087;-67
2023/05/01 03:04:35;;;;;;;8.70;3.67;;;11.90;99.90;;;;;;4174238;28;20407;-67
2023/05/01 03:06:36;;;;;;;7.22;3.72;;;12.00;99.90;;;;;;4177851;28;20066;-67
2023/05/01 03:08:37;;;;;;;6.40;3.92;;;12.00;99.90;;;;;;4177139;28;20094;-68
2023/05/01 03:10:43;;;;;;;6.00;3.60;;;12.00;99.90;;;;;;4178601;28;20104;-67
2023/05/01 03:12:44;;;;;;;6.20;3.60;;;12.00;99.90;;;;;;4178915;28;20025;-67
2023/05/01 03:14:44;;;;;;;7.43;3.92;;;11.90;99.90;;;;;;4176662;28;20033;-68
2023/05/01 03:16:45;;;;;;;7.05;3.65;;;11.80;99.90;;;;;;4177558;28;20033;-68
2023/05/01 03:18:45;;;;;;;6.13;3.67;;;11.80;99.90;;;;;;4178028;28;20399;-67
2023/05/01 03:20:55;;;;;;;5.80;3.90;;;11.80;99.90;;;;;;4178539;28;20021;-67
2023/05/01 03:22:56;;;;;;;5.85;3.50;;;11.90;99.90;;;;;;4172457;28;20126;-67
2023/05/01 03:24:57;;;;;;;5.43;3.15;;;11.90;99.90;;;;;;4177515;28;20037;-67
2023/05/01 03:26:58;;;;;;;7.10;3.78;;;12.00;99.90;;;;;;4176952;28;20365;-67
2023/05/01 03:28:58;;;;;;;5.03;2.92;;;12.00;99.90;;;;;;4176987;28;20483;-67
2023/05/01 03:30:59;;;;;;;5.90;3.53;;;12.10;99.90;;;;;;4176647;28;20080;-68
2023/05/01 03:33:00;;;;;;;7.65;3.58;;;12.10;99.90;;;;;;4179263;28;20437;-67
2023/05/01 03:35:00;;;;;;;7.75;3.97;;;12.20;99.90;;;;;;4192172;28;20520;-68
2023/05/01 03:37:01;;;;;;;5.30;3.30;;;12.20;99.90;;;;;;4177529;28;20102;-67
2023/05/01 03:39:01;;;;;;;7.20;3.78;;;12.30;99.90;;;;;;4191453;28;20036;-67
2023/05/01 03:41:04;;;;;;;6.43;3.45;;;12.30;99.90;;;;;;4177530;28;20090;-67
2023/05/01 03:43:05;;;;;;;5.60;3.17;;;12.30;99.90;;;;;;4179149;28;20044;-67
2023/05/01 03:45:06;;;;;;;4.22;2.92;;;12.40;99.90;;;;;;4176486;28;20112;-68
2023/05/01 03:47:07;;;;;;;5.38;3.10;;;12.40;99.90;;;;;;4178571;28;20043;-67
2023/05/01 03:49:07;;;;;;;4.47;3.13;;;12.40;99.90;;;;;;4175148;28;20065;-67
2023/05/01 03:51:08;;;;;;;4.95;3.30;;;12.30;99.90;;;;;;4177502;28;20029;-67
2023/05/01 03:53:08;;;;;;;3.60;2.53;;;12.30;99.90;;;;;;4177920;28;20182;-67
2023/05/01 03:55:09;;;;;;;5.30;3.20;;;12.30;99.90;;;;;;4177608;28;20140;-69
2023/05/01 03:57:10;;;;;;;5.70;2.60;;;12.30;99.90;;;;;;4177768;28;20033;-67
2023/05/01 03:59:11;;;;;;;7.00;3.45;;;12.30;99.90;;;;;;4176004;28;20029;-67
2023/05/01 04:01:11;;;;;;;3.47;2.63;;;12.30;99.90;;;;;;4170766;28;20059;-68
2023/05/01 04:03:12;;;;;;;4.32;3.00;;;12.30;99.90;;;;;;4177314;28;20033;-67
2023/05/01 04:05:13;;;;;;;5.72;3.25;;;12.30;99.90;;;;;;4176515;28;20037;-68
2023/05/01 04:07:14;;;;;;;4.80;3.10;;;12.30;99.90;;;;;;4177789;28;20568;-68
2023/05/01 04:09:15;;;;;;;4.85;3.20;;;12.20;99.90;;;;;;4174176;28;20033;-68
2023/05/01 04:11:15;;;;;;;5.30;2.75;;;12.20;99.90;;;;;;4176308;28;20094;-67
2023/05/01 04:13:16;;;;;;;7.35;3.53;;;12.20;99.90;;;;;;4178365;28;20044;-68
2023/05/01 04:15:17;;;;;;;5.70;3.10;;;12.20;99.90;;;;;;4175969;28;20029;-68
2023/05/01 04:17:17;;;;;;;5.57;3.17;;;12.20;99.90;;;;;;4178215;28;20080;-67
2023/05/01 04:19:18;;;;;;;6.57;3.33;;;12.20;99.90;;;;;;4177879;28;20033;-68
2023/05/01 04:21:19;;;;;;;3.92;2.78;;;12.20;99.90;;;;;;4175349;28;20917;-67
2023/05/01 04:23:19;;;;;;;4.95;2.88;;;12.20;99.90;;;;;;4175476;28;20059;-67
2023/05/01 04:25:20;;;;;;;6.20;3.42;;;12.10;99.90;;;;;;4175006;28;20029;-67
2023/05/01 04:27:21;;;;;;;5.63;3.10;;;12.10;99.90;;;;;;4177619;28;20044;-67
2023/05/01 04:29:22;;;;;;;7.22;3.45;;;12.10;99.90;;;;;;4176905;28;20053;-68
2023/05/01 04:31:23;;;;;;;7.88;3.60;;;12.00;99.90;;;;;;4177044;28;20568;-68
2023/05/01 04:33:23;;;;;;;4.93;3.58;;;11.90;99.90;;;;;;4176863;28;20025;-68
2023/05/01 04:35:24;;;;;;;6.00;2.92;;;11.80;99.90;;;;;;4176065;28;20048;-67
2023/05/01 04:37:25;;;;;;;4.97;2.80;;;11.80;99.90;;;;;;4176481;28;20025;-67
2023/05/01 04:39:25;;;;;;;5.40;3.00;;;11.80;99.90;;;;;;4177231;28;20025;-66
2023/05/01 04:41:26;;;;;;;3.47;2.60;;;11.80;99.90;;;;;;4175016;28;20039;-67
2023/05/01 04:43:26;;;;;;;6.75;3.10;;;11.80;99.90;;;;;;4177873;28;20041;-68
2023/05/01 04:45:27;;;;;;;4.80;3.15;;;11.80;99.90;;;;;;4176829;28;20048;-68
2023/05/01 04:47:27;;;;;;;6.93;3.08;;;11.80;99.90;;;;;;4177755;28;20037;-68
2023/05/01 04:49:28;;;;;;;5.20;3.70;;;11.90;99.90;;;;;;4176153;28;20033;-67
2023/05/01 04:51:29;;;;;;;8.70;3.85;;;11.90;99.90;;;;;;4176569;28;20045;-67
2023/05/01 04:53:30;;;;;;;5.22;3.42;;;12.00;99.90;;;;;;4177178;28;20025;-67
2023/05/01 04:55:31;;;;;;;5.70;3.15;;;12.00;99.90;;;;;;4171417;28;20044;-67
2023/05/01 04:57:31;;;;;;;4.50;3.15;;;12.00;99.90;;;;;;4175920;28;20025;-68
2023/05/01 04:59:32;;;;;;;5.40;3.10;;;12.00;99.90;;;;;;4189364;28;20190;-67
2023/05/01 05:01:33;;;;;;;8.98;3.50;;;12.00;99.90;;;;;;4174713;28;20045;-67
2023/05/01 05:03:34;;;;;;;8.18;3.63;;;12.10;99.90;;;;;;4176832;28;20033;-68
2023/05/01 05:05:34;;;;;;;5.38;3.00;;;12.10;99.90;;;;;;4174277;28;20078;-67
2023/05/01 05:07:35;;;;;;;5.38;3.35;;;12.20;99.90;;;;;;4176125;28;20045;-67
2023/05/01 05:09:35;;;;;;;5.35;3.45;;;12.20;99.90;;;;;;4176126;28;20494;-67
2023/05/01 05:11:36;;;;;;;5.15;3.17;;;12.30;99.90;;;;;;4174620;28;20032;-67
2023/05/01 05:13:37;;;;;;;5.10;3.47;;;12.30;99.90;;;;;;4177210;28;20037;-67
2023/05/01 05:15:37;;;;;;;5.82;3.70;;;12.30;99.90;;;;;;4176861;28;20037;-67
2023/05/01 05:17:38;;;;;;;4.40;3.00;;;12.30;99.90;;;;;;4177387;28;20067;-67
2023/05/01 05:19:38;;;;;;;5.07;3.30;;;12.30;99.90;;;;;;4176317;28;20044;-67
2023/05/01 05:21:39;;;;;;;4.90;3.30;;;12.30;99.90;;;;;;4174464;28;20029;-67
2023/05/01 05:23:40;;;;;;;5.13;3.33;;;12.40;99.90;;;;;;4171578;28;21235;-67
2023/05/01 05:25:40;;;;;;;8.10;3.83;;;12.40;99.90;;;;;;4176312;28;20123;-67
2023/05/01 05:27:41;;;;;;;7.38;3.80;;;12.40;99.90;;;;;;4175042;28;20029;-67
2023/05/01 05:29:41;;;;;;;7.00;3.60;;;12.50;99.90;;;;;;4176072;28;20053;-67
2023/05/01 05:31:42;;;;;;;5.45;3.03;;;12.50;99.90;;;;;;4174336;28;20041;-67
2023/05/01 05:33:43;;;;;;;6.57;3.42;;;12.50;99.90;;;;;;4175527;28;20387;-67
2023/05/01 05:35:44;;;;;;;6.22;3.28;;;12.50;99.90;;;;;;4174363;28;20037;-68
2023/05/01 05:37:46;;;;;;;4.97;2.80;;;12.60;99.90;;;;;;4170677;28;20055;-67
2023/05/01 05:39:46;;;;;;;4.60;2.80;;;12.60;99.90;;;;;;4174715;28;20449;-68
2023/05/01 05:41:48;;;;;;;5.15;3.05;;;12.70;99.90;;;;;;4175469;28;20033;-68
2023/05/01 05:43:48;;;;;;;5.40;3.03;;;12.70;99.90;;;;;;4176203;28;20603;-67
2023/05/01 05:45:49;;;;;;;4.22;2.58;;;12.80;99.90;;;;;;4174133;28;20029;-67
2023/05/01 05:47:50;;;;;;;4.78;2.85;;;12.80;99.90;;;;;;4175197;28;20510;-67
2023/05/01 05:49:50;;;;;;;6.30;3.35;;;12.90;99.90;;;;;;4174266;28;20036;-67
2023/05/01 05:51:51;;;;;;;5.03;3.15;;;13.00;99.90;;;;;;4174960;28;20025;-67
2023/05/01 05:53:51;;;;;;;4.82;3.40;;;13.00;99.90;;;;;;4176303;28;20041;-67
2023/05/01 05:55:52;;;;;;;5.78;3.33;;;13.00;99.90;;;;;;4174793;28;20039;-68
2023/05/01 05:57:53;;;;;;;3.58;2.78;;;13.10;99.90;;;;;;4176495;28;20101;-67
2023/05/01 05:59:53;;;;;;;6.22;3.05;;;13.10;99.90;;;;;;4176380;28;20033;-68
2023/05/01 06:01:54;;;;;;;5.18;3.38;;;13.20;99.90;;;;;;4174568;28;20088;-67
2023/05/01 06:03:55;;;;;;;5.00;2.85;;;13.20;99.90;;;;;;4174448;28;20033;-68
2023/05/01 06:05:56;;;;;;;4.97;3.13;;;13.30;99.90;;;;;;4171467;28;20112;-67
2023/05/01 06:07:57;;;;;;;7.55;3.88;;;13.30;99.90;;;;;;4167659;28;20120;-67
2023/05/01 06:10:04;;;;;;;6.28;3.42;;;13.40;99.90;;;;;;4172637;28;20061;-67
2023/05/01 06:12:04;;;;;;;4.63;3.25;;;13.40;99.90;;;;;;4168751;28;20119;-67
2023/05/01 06:14:06;;;;;;;6.47;3.47;;;13.40;99.90;;;;;;4173473;28;20048;-67
2023/05/01 06:16:07;;;;;;;8.45;3.80;;;13.50;99.90;;;;;;4172691;28;20045;-67
2023/05/01 06:18:07;;;;;;;5.57;3.00;;;13.50;99.90;;;;;;4170739;28;20118;-67
2023/05/01 06:20:09;;;;;;;7.38;2.92;;;13.50;99.90;;;;;;4167775;28;20626;-67
2023/05/01 06:22:10;;;;;;;3.80;2.63;;;13.50;99.90;;;;;;4166361;28;20041;-67
2023/05/01 06:24:11;;;;;;;4.82;2.90;;;13.60;99.90;;;;;;4171448;28;20040;-66
2023/05/01 06:26:11;;;;;;;3.83;2.50;;;13.60;99.90;;;;;;4169662;28;20526;-66
2023/05/01 06:28:12;;;;;;;4.63;2.58;;;13.60;99.90;;;;;;4168773;28;20057;-66
2023/05/01 06:30:13;;;;;;;4.70;2.60;;;13.70;99.90;;;;;;4164947;28;20040;-68
2023/05/01 06:32:13;;;;;;;5.85;2.70;;;13.70;99.90;;;;;;4164557;28;20463;-66
2023/05/01 06:34:14;;;;;;;3.92;2.45;;;13.70;99.90;;;;;;4167986;28;20028;-68
2023/05/01 06:36:15;;;;;;;4.30;2.55;;;13.70;99.90;;;;;;4169131;28;20032;-68
2023/05/01 06:38:16;;;;;;;5.50;2.85;;;13.80;99.90;;;;;;4170477;28;20040;-69
2023/05/01 06:40:17;;;;;;;5.75;2.70;;;13.90;99.90;;;;;;4166503;28;20034;-69
2023/05/01 06:42:20;;;;;;;5.00;2.78;;;13.90;99.90;;;;;;4174368;28;20104;-69
2023/05/01 06:44:20;;;;;;;5.05;2.55;;;14.00;99.90;;;;;;4175684;28;20037;-69
2023/05/01 06:46:21;;;;;;;4.07;2.50;;;14.00;99.90;;;;;;4171684;28;20491;-69
2023/05/01 06:48:22;;;;;;;5.28;2.90;;;14.00;99.90;;;;;;4174276;28;21157;-69
2023/05/01 06:50:23;;;;;;;3.67;2.45;;;14.10;99.90;;;;;;4173237;28;20040;-68
2023/05/01 06:52:24;;;;;;;5.22;2.90;;;14.20;99.90;;;;;;4175412;28;20040;-69
2023/05/01 06:54:25;;;;;;;4.13;2.72;;;14.30;99.90;;;;;;4175246;28;20116;-69
2023/05/01 06:56:26;;;;;;;2.90;2.40;;;14.30;99.90;;;;;;4172541;28;20033;-70
2023/05/01 06:58:26;;;;;;;4.22;2.33;;;14.40;99.90;;;;;;4175411;28;20111;-69
2023/05/01 07:00:27;;;;;;;5.03;2.60;;;14.40;99.90;;;;;;4174902;28;20037;-69
2023/05/01 07:02:27;;;;;;;7.60;3.13;;;14.50;99.90;;;;;;4175082;28;20369;-69
2023/05/01 07:04:29;;;;;;;7.03;2.75;;;14.50;99.90;;;;;;4174471;28;20040;-69
2023/05/01 07:06:31;;;;;;;4.53;3.10;;;14.60;99.90;;;;;;4174959;28;20136;-69
2023/05/01 07:08:32;;;;;;;4.70;2.58;;;14.70;99.90;;;;;;4175696;28;20411;-69
2023/05/01 07:10:32;;;;;;;6.47;2.97;;;14.70;99.90;;;;;;4175708;28;20033;-69
2023/05/01 07:12:33;;;;;;;3.30;2.45;;;14.80;99.90;;;;;;4174742;28;20091;-69
2023/05/01 07:14:34;;;;;;;5.00;3.22;;;14.80;99.90;;;;;;4172395;28;20029;-69
2023/05/01 07:16:35;;;;;;;5.25;3.10;;;14.90;99.90;;;;;;4171362;28;20707;-69
2023/05/01 07:18:36;;;;;;;3.88;2.72;;;14.90;99.90;;;;;;4172851;28;20095;-70
2023/05/01 07:20:37;;;;;;;6.13;3.20;;;15.00;99.90;;;;;;4169688;28;20033;-69
2023/05/01 07:22:37;;;;;;;10.57;2.88;;;15.10;99.90;;;;;;4172563;28;20044;-69
2023/05/01 07:24:38;;;;;;;6.60;2.83;;;15.20;99.90;;;;;;4176957;28;20399;-69
2023/05/01 07:26:39;;;;;;;5.55;2.67;;;15.30;99.90;;;;;;4175617;28;20037;-70
2023/05/01 07:28:40;;;;;;;5.43;2.85;;;15.40;99.90;;;;;;4176846;28;20040;-70
2023/05/01 07:30:41;;;;;;;5.65;3.28;;;15.50;99.90;;;;;;4175013;28;20029;-70
2023/05/01 07:32:41;;;;;;;7.18;2.88;;;15.50;99.90;;;;;;4179080;28;20086;-69
2023/05/01 07:34:42;;;;;;;4.43;3.03;;;15.60;99.90;;;;;;4175800;28;20033;-69
2023/05/01 07:36:43;;;;;;;5.18;2.78;;;15.70;99.90;;;;;;4177940;28;20072;-69
2023/05/01 07:38:44;;;;;;;5.93;3.00;;;15.70;99.90;;;;;;4179294;28;20036;-69
2023/05/01 07:40:44;;;;;;;5.18;3.10;;;15.80;99.90;;;;;;4177333;28;20029;-70
2023/05/01 07:42:45;;;;;;;4.60;2.70;;;15.90;99.90;;;;;;4178644;28;20029;-69
2023/05/01 07:44:46;;;;;;;4.70;3.00;;;16.00;99.90;;;;;;4178240;28;20029;-69
2023/05/01 07:46:46;;;;;;;3.97;2.40;;;16.10;99.90;;;;;;4176686;28;20034;-70
2023/05/01 07:48:47;;;;;;;4.55;3.08;;;16.20;99.90;;;;;;4178115;28;20056;-69
2023/05/01 07:50:47;;;;;;;6.10;2.60;;;16.30;99.90;;;;;;4177523;28;20059;-70
2023/05/01 07:52:48;;;;;;;7.88;3.35;;;16.40;99.90;;;;;;4178317;28;20388;-69
2023/05/01 07:54:51;;;;;;;5.22;2.58;;;16.40;99.90;;;;;;4178702;28;20037;-70
2023/05/01 07:56:52;;;;;;;5.82;2.65;;;16.60;99.90;;;;;;4177257;28;20527;-69
2023/05/01 07:58:52;;;;;;;4.03;2.60;;;16.70;99.90;;;;;;4178442;28;20024;-69
2023/05/01 08:00:53;;;;;;;3.75;2.13;;;16.70;99.90;;;;;;4177275;28;20037;-70
2023/05/01 08:02:53;;;;;;;5.32;2.35;;;16.80;99.90;;;;;;4177124;28;20036;-70
2023/05/01 08:04:54;;;;;;;5.03;2.67;;;16.90;99.90;;;;;;4172639;28;20029;-70
2023/05/01 08:06:54;;;;;;;4.57;2.80;;;17.00;99.90;;;;;;4174302;28;20029;-70
2023/05/01 08:08:55;;;;;;;4.32;2.38;;;17.10;99.90;;;;;;4177378;28;20017;-70
2023/05/01 08:10:56;;;;;;;3.53;2.28;;;17.10;99.90;;;;;;4173818;28;20033;-69
2023/05/01 08:12:56;;;;;;;6.78;3.10;;;17.20;99.90;;;;;;4173354;28;20169;-70
2023/05/01 08:14:57;;;;;;;4.22;2.42;;;17.30;99.90;;;;;;4174296;28;20037;-69
2023/05/01 08:16:57;;;;;;;3.25;2.47;;;17.20;99.90;;;;;;4172660;28;20131;-69
2023/05/01 08:18:58;;;;;;;4.28;2.22;;;17.40;99.90;;;;;;4173176;28;20123;-69
2023/05/01 08:20:59;;;;;;;4.10;1.88;;;17.40;99.90;;;;;;4172052;28;20575;-69
2023/05/01 08:22:59;;;;;;;3.30;2.25;;;17.50;99.90;;;;;;4175579;28;20099;-69
2023/05/01 08:25:00;;;;;;;7.40;2.60;;;17.60;99.90;;;;;;4177971;28;20060;-69
2023/05/01 08:27:01;;;;;;;3.05;2.10;;;17.60;99.90;;;;;;4176406;28;20387;-69
2023/05/01 08:29:02;;;;;;;3.90;2.20;;;17.70;99.90;;;;;;4178063;28;20036;-68
2023/05/01 08:31:02;;;;;;;3.53;1.85;;;17.80;99.90;;;;;;4180264;28;20037;-69
2023/05/01 08:33:03;;;;;;;6.32;2.33;;;17.80;99.90;;;;;;4178623;28;20026;-69
2023/05/01 08:35:04;;;;;;;5.40;2.10;;;17.90;99.90;;;;;;4177259;28;20029;-69
2023/05/01 08:37:05;;;;;;;2.85;1.60;;;17.90;99.90;;;;;;4177638;28;20450;-69
2023/05/01 08:39:06;;;;;;;3.97;1.80;;;18.00;99.90;;;;;;4185924;28;20048;-69
2023/05/01 08:41:07;;;;;;;2.80;1.90;;;18.10;99.90;;;;;;4177788;28;20524;-69
2023/05/01 08:43:08;;;;;;;3.20;1.75;;;18.20;99.90;;;;;;4173923;28;20476;-69
2023/05/01 08:45:10;;;;;;;3.13;2.13;;;18.10;99.90;;;;;;4173491;28;20037;-70
2023/05/01 08:47:15;;;;;;;3.25;2.03;;;18.20;99.90;;;;;;4173200;28;20029;-68
2023/05/01 08:49:17;;;;;;;5.78;1.90;;;18.30;99.90;;;;;;4179226;28;20399;-68
2023/05/01 08:51:21;;;;;;;3.63;2.07;;;18.20;99.90;;;;;;4173033;28;20032;-69
2023/05/01 08:53:23;;;;;;;2.35;1.50;;;18.30;99.90;;;;;;4172253;28;21374;-68
2023/05/01 08:55:26;;;;;;;3.63;1.92;;;18.40;99.90;;;;;;4170501;28;20037;-69
2023/05/01 08:57:29;;;;;;;2.10;1.65;;;18.40;99.90;;;;;;4177865;28;20479;-69
2023/05/01 08:59:32;;;;;;;4.03;2.35;;;18.40;99.90;;;;;;4175634;28;20041;-69
2023/05/01 09:01:34;;;;;;;2.97;1.75;;;18.50;99.90;;;;;;4170717;28;20063;-69
2023/05/01 09:03:36;;;;;;;3.42;1.83;;;18.50;99.90;;;;;;4172975;28;20033;-68
2023/05/01 09:05:37;;;;;;;3.30;1.83;;;18.50;99.90;;;;;;4171940;28;20113;-69
2023/05/01 09:07:39;;;;;;;3.47;1.70;;;18.50;99.90;;;;;;4172843;28;20100;-67
2023/05/01 09:09:40;;;;;;;2.65;1.80;;;18.60;99.90;;;;;;4172717;28;20041;-67
2023/05/01 09:11:43;;;;;;;2.47;1.98;;;18.60;99.90;;;;;;4170329;28;20033;-67
2023/05/01 09:13:45;;;;;;;2.85;2.03;;;18.60;99.90;;;;;;4173526;28;20154;-67
2023/05/01 09:15:45;;;;;;;3.70;2.17;;;18.70;99.90;;;;;;4173090;28;20116;-67
2023/05/01 09:17:46;;;;;;;2.95;2.08;;;18.70;99.90;;;;;;4174148;28;20531;-67
2023/05/01 09:19:50;;;;;;;3.65;1.80;;;18.70;99.90;;;;;;4174433;28;20085;-68
2023/05/01 09:21:52;;;;;;;4.25;2.00;;;18.70;99.90;;;;;;4172812;28;20036;-67
2023/05/01 09:23:53;;;;;;;3.83;1.98;;;18.70;99.90;;;;;;4172563;28;20043;-67
2023/05/01 09:25:55;;;;;;;4.30;1.95;;;18.80;99.90;;;;;;4171136;28;20120;-67
2023/05/01 09:27:56;;;;;;;2.00;1.70;;;18.90;99.90;;;;;;4173746;28;20600;-67
2023/05/01 09:29:56;;;;;;;2.17;1.70;;;18.90;99.90;;;;;;4174062;28;20472;-67
2023/05/01 09:32:22;;;;;;;3.88;1.98;;;18.90;99.30;;;;;;4171947;28;20029;-66
2023/05/01 09:34:22;;;;;;;3.90;1.90;;;19.00;99.90;;;;;;4174177;28;20033;-68
2023/05/01 09:36:25;;;;;;;3.42;1.92;;;19.00;99.60;;;;;;4173683;28;20039;-67
2023/05/01 09:38:26;;;;;;;;;;;18.90;99.60;;;;;;4176001;28;20115;-66
2023/05/01 09:40:27;;;;;;;3.00;1.90;;;19.00;99.90;;;;;;4170513;28;19917;-67
2023/05/01 09:42:29;;;;;;;3.08;1.63;;;19.00;99.60;;;;;;4169423;28;20063;-66
2023/05/01 09:44:30;;;;;;;2.58;1.92;;;19.00;99.20;;;;;;4173860;28;20082;-66
2023/05/01 09:46:41;;;;;;;4.30;2.08;;;19.00;99.30;;;;;;4173828;28;20142;-67
2023/05/01 09:48:58;;;;;;;3.25;2.13;;;19.00;99.90;;;;;;4177109;28;20369;-67
2023/05/01 09:50:59;;;;;;;4.03;2.05;;;19.00;99.10;;;;;;4169572;28;20028;-67
2023/05/01 09:53:00;;;;;;;4.45;2.15;;;19.10;99.50;;;;;;4177582;28;20514;-67
2023/05/01 09:55:31;;;;;;;3.17;2.13;;;19.20;99.90;;;;;;4172296;28;20040;-68
2023/05/01 09:57:36;;;;;;;3.97;2.30;;;19.20;99.90;;;;;;4165819;28;20060;-67
2023/05/01 09:59:37;;;;;;;3.10;1.83;;;19.10;99.90;;;;;;4171382;28;20452;-67
2023/05/01 10:01:43;;;;;;;2.78;1.85;;;19.20;99.90;;;;;;4169801;28;20032;-66
2023/05/01 10:03:44;;;;;;;2.78;1.92;;;19.20;99.90;;;;;;4175088;28;20033;-66
2023/05/01 10:05:45;;;;;;;4.20;2.30;;;19.20;99.10;;;;;;4174233;28;20029;-67
2023/05/01 10:07:56;;;;;;;2.78;2.10;;;19.20;99.20;;;;;;4175118;28;20443;-67
2023/05/01 10:09:57;;;;;;;2.97;1.58;;;19.30;99.20;;;;;;4177802;28;20055;-67
2023/05/01 10:11:58;;;;;;;4.05;2.05;;;19.30;99.80;;;;;;4175639;28;20116;-66
2023/05/01 10:14:09;;;;;;;2.80;2.05;;;19.40;99.90;;;;;;4175870;28;20029;-67
2023/05/01 10:16:28;;;;;;;2.28;1.80;;;19.40;99.90;;;;;;4171043;28;20120;-67
2023/05/01 10:18:29;;;;;;;3.38;2.00;;;19.50;99.90;;;;;;4175408;28;20037;-67
2023/05/01 10:20:31;;;;;;;2.42;1.90;;;19.50;99.50;;;;;;4175945;28;20067;-67
2023/05/01 10:22:32;;;;;;;4.05;2.10;;;19.60;99.90;;;;;;4180300;28;20029;-67
2023/05/01 10:24:32;;;;;;;3.38;2.10;;;19.60;99.90;;;;;;4178213;28;20036;-67
2023/05/01 10:26:33;;;;;;;3.00;2.30;;;19.70;99.50;;;;;;4170798;28;20032;-67
2023/05/01 10:28:34;;;;;;;3.97;2.28;;;19.70;99.90;;;;;;4173629;28;20555;-69
2023/05/01 10:30:37;;;;;;;5.05;2.33;;;19.70;99.40;;;;;;4168744;28;20108;-67
2023/05/01 10:32:40;;;;;;;4.60;2.38;;;19.70;99.90;;;;;;4178091;28;20116;-67
2023/05/01 10:34:50;;;;;;;3.75;2.22;;;19.70;99.90;;;;;;4180028;28;20094;-67
2023/05/01 10:36:57;;;;;;;3.65;2.30;;;19.70;99.90;;;;;;4173794;28;20029;-67
2023/05/01 10:38:57;;;;;;;4.20;2.40;;;19.80;99.90;;;;;;4173860;28;20055;-67